»·PEaware :: N416JK KVEL-KDTA

N416JK :: KVEL-KDTA

FLIGHT INFORMATION

Flight Status: Arrived
Operator: Privately registered:
United States
More flights under this callsign
Pilot: John K. (4202)
Aircraft: PIPER PA-44 SEMINOLE
(PA44)
More flights by this aircraft type
Origin: KVEL Vernal
United States
Destination: KDTA Delta Mun
United States
More flights between these airports :: More routes between these airports
Route: VEL V208 MTU V200 FFU V21 PUCIT
File this flight plan on PilotEdge
Remarks: VEL V208 MTU V200 FFU V21 PUCIT
Altitude:
(Current/Filed)
14,000ft
Speed:
(Current/Filed)
180kts
Departed: 23-Feb-21 08:51 AM
Arrived: 23-Feb-21 10:10 AM
Distance/Time
Traveled:
152nm/1:19
Distance/Time
To Go:
Arrived

Flight Plot

Page will automatically refresh every two minutes.

Flight plan parsing failed; only flown route is shown


Map Options




Map Legend


Flown Route
Filed Route
Departure Airport
Arrival Airport
Navaid (VOR, NDB)
Fix

Horizontal Profiles

Position Reports

Time Latitude Longitude Heading Altitude Ground
Speed
23-Feb-21 08:29 40.438058 -109.512043 18 5280ft 0kts
23-Feb-21 08:30 40.438058 -109.512043 18 5280ft 0kts
23-Feb-21 08:31 40.438058 -109.512043 18 5280ft 0kts
23-Feb-21 08:32 40.438058 -109.512043 18 5280ft 0kts
23-Feb-21 08:33 40.437004 -109.511890 177 5280ft 37kts
23-Feb-21 08:34 40.429930 -109.511508 134 5280ft 0kts
23-Feb-21 08:35 40.429930 -109.511508 134 5280ft 0kts
23-Feb-21 08:36 40.429930 -109.511508 134 5280ft 0kts
23-Feb-21 08:37 40.429930 -109.511508 134 5280ft 0kts
23-Feb-21 08:38 40.429930 -109.511508 134 5280ft 0kts
23-Feb-21 08:39 40.429930 -109.511508 134 5280ft 0kts
23-Feb-21 08:40 40.429930 -109.511508 134 5280ft 0kts
23-Feb-21 08:41 40.429930 -109.511508 134 5280ft 0kts
23-Feb-21 08:42 40.429930 -109.511508 134 5280ft 0kts
23-Feb-21 08:43 40.429930 -109.511508 134 5280ft 0kts
23-Feb-21 08:44 40.429930 -109.511508 134 5280ft 0kts
23-Feb-21 08:45 40.429930 -109.511508 134 5280ft 0kts
23-Feb-21 08:46 40.429930 -109.511508 134 5280ft 0kts
23-Feb-21 08:47 40.429930 -109.511508 134 5280ft 0kts
23-Feb-21 08:48 40.429930 -109.511508 134 5280ft 0kts
23-Feb-21 08:50 40.429901 -109.511376 90 5280ft 7kts
23-Feb-21 08:51 40.441975 -109.510307 1 5586ft 103kts
23-Feb-21 08:52 40.442653 -109.524964 166 7362ft 122kts
23-Feb-21 08:53 40.417732 -109.499126 174 9161ft 114kts
23-Feb-21 08:54 40.386799 -109.490178 213 10521ft 127kts
23-Feb-21 08:55 40.368197 -109.526698 248 11413ft 120kts
23-Feb-21 08:56 40.353850 -109.563924 252 12290ft 113kts
23-Feb-21 08:57 40.340586 -109.600059 254 13360ft 113kts
23-Feb-21 08:58 40.326820 -109.638455 254 14007ft 130kts
23-Feb-21 08:59 40.310654 -109.683225 253 14007ft 143kts
23-Feb-21 09:00 40.293749 -109.729935 253 14006ft 145kts
23-Feb-21 09:01 40.276887 -109.776488 253 14031ft 142kts
23-Feb-21 09:02 40.260289 -109.822330 253 14032ft 142kts
23-Feb-21 09:03 40.243217 -109.869469 253 14023ft 145kts
23-Feb-21 09:04 40.226114 -109.916492 253 14022ft 146kts
23-Feb-21 09:05 40.208862 -109.963703 253 14022ft 147kts
23-Feb-21 09:06 40.191583 -110.010856 253 14021ft 147kts
23-Feb-21 09:07 40.174225 -110.058107 253 14021ft 147kts
23-Feb-21 09:08 40.156608 -110.105933 253 14027ft 146kts
23-Feb-21 09:09 40.151785 -110.155261 275 14024ft 141kts
23-Feb-21 09:10 40.155408 -110.206718 276 13823ft 145kts
23-Feb-21 09:11 40.159200 -110.257584 277 13818ft 142kts
23-Feb-21 09:11 40.162384 -110.300400 276 13818ft 141kts
23-Feb-21 09:13 40.166845 -110.359318 277 13817ft 142kts
23-Feb-21 09:14 40.170616 -110.409594 277 13817ft 142kts
23-Feb-21 09:15 40.172873 -110.439906 277 13817ft 142kts
23-Feb-21 09:16 40.176672 -110.491214 277 13816ft 141kts
23-Feb-21 09:16 40.179735 -110.532836 277 13816ft 141kts
23-Feb-21 09:17 40.182550 -110.571266 277 13815ft 141kts
23-Feb-21 09:18 40.185873 -110.616850 277 13815ft 141kts
23-Feb-21 09:20 40.190159 -110.676072 277 13814ft 137kts
23-Feb-21 09:20 40.193035 -110.715984 277 13813ft 133kts
23-Feb-21 09:21 40.196511 -110.764690 277 13814ft 140kts
23-Feb-21 09:22 40.200075 -110.814621 277 13813ft 141kts
23-Feb-21 09:23 40.203694 -110.865763 277 13812ft 141kts
23-Feb-21 09:24 40.207202 -110.915655 277 13812ft 141kts
23-Feb-21 09:25 40.210699 -110.965734 277 13848ft 139kts
23-Feb-21 09:26 40.214082 -111.014459 277 13987ft 138kts
23-Feb-21 09:27 40.217495 -111.063900 277 14002ft 140kts
23-Feb-21 09:28 40.220626 -111.109268 277 14009ft 140kts
23-Feb-21 09:29 40.224273 -111.159619 277 14012ft 142kts
23-Feb-21 09:30 40.227641 -111.209664 277 13998ft 142kts
23-Feb-21 09:31 40.231033 -111.259338 277 13945ft 143kts
23-Feb-21 09:32 40.234504 -111.310891 277 13946ft 146kts
23-Feb-21 09:33 40.238030 -111.363889 277 13910ft 147kts
23-Feb-21 09:34 40.241515 -111.416578 278 13780ft 148kts
23-Feb-21 09:35 40.244953 -111.468761 278 13779ft 146kts
23-Feb-21 09:36 40.248358 -111.520798 278 13779ft 146kts
23-Feb-21 09:37 40.251845 -111.573752 276 13779ft 145kts
23-Feb-21 09:38 40.255083 -111.625350 276 13778ft 145kts
23-Feb-21 09:39 40.258421 -111.676914 276 13778ft 145kts
23-Feb-21 09:40 40.261712 -111.728535 276 13777ft 145kts
23-Feb-21 09:41 40.264970 -111.780699 276 13777ft 149kts
23-Feb-21 09:42 40.268357 -111.835533 276 13777ft 152kts
23-Feb-21 09:43 40.271670 -111.889538 276 13776ft 152kts
23-Feb-21 09:44 40.266869 -111.941139 226 13767ft 172kts
23-Feb-21 09:45 40.224044 -111.969772 218 13775ft 181kts
23-Feb-21 09:46 40.177554 -111.997602 217 13776ft 185kts
23-Feb-21 09:47 40.131364 -112.024722 217 13775ft 186kts
23-Feb-21 09:48 40.085021 -112.051776 217 13775ft 185kts
23-Feb-21 09:49 40.038900 -112.078964 217 13784ft 185kts
23-Feb-21 09:50 39.992794 -112.106039 217 13791ft 186kts
23-Feb-21 09:51 39.945453 -112.134088 216 13792ft 187kts
23-Feb-21 09:52 39.899690 -112.160743 216 13791ft 180kts
23-Feb-21 09:53 39.856643 -112.186082 226 13783ft 162kts
23-Feb-21 09:54 39.829402 -112.226423 241 12869ft 159kts
23-Feb-21 09:55 39.801145 -112.271111 241 11320ft 172kts
23-Feb-21 09:56 39.770377 -112.320010 240 9775ft 167kts
23-Feb-21 09:57 39.742046 -112.365210 239 9770ft 163kts
23-Feb-21 09:58 39.713827 -112.409979 239 9770ft 163kts
23-Feb-21 09:59 39.685663 -112.454674 239 9770ft 164kts
23-Feb-21 10:00 39.655556 -112.497543 207 9758ft 178kts
23-Feb-21 10:01 39.603577 -112.500902 184 8931ft 186kts
23-Feb-21 10:02 39.562676 -112.501121 183 7469ft 141kts
23-Feb-21 10:03 39.527012 -112.501379 180 6666ft 110kts
23-Feb-21 10:04 39.500782 -112.501501 180 6664ft 86kts
23-Feb-21 10:05 39.475632 -112.501650 179 6444ft 113kts
23-Feb-21 10:06 39.446564 -112.501832 177 5881ft 104kts
23-Feb-21 10:07 39.417436 -112.502008 176 5309ft 107kts
23-Feb-21 10:08 39.389539 -112.502230 174 4762ft 84kts
23-Feb-21 10:09 39.376655 -112.502261 180 4762ft 36kts
23-Feb-21 10:10 39.377905 -112.506330 314 4762ft 34kts
23-Feb-21 10:11 39.385047 -112.515570 318 4762ft 29kts
23-Feb-21 10:12 39.386277 -112.516673 17 4762ft 0kts

Navigation Log

Ident Type
Flight plan parsing failed, navigation log unavailable